Terminal Aerodrome Forecast
Issued by NWS

Home | Current Version | Previous Version | Text Only | Print | Product List | Glossary On
Versions: 1 2 3 4 5 6 7 8 9 10 11 12
000
FTUS42 KMLB 220500
TAFTIX
TAF
KTIX 220533Z 2206/2306 VRB03KT 6SM -RA BR FEW025 OVC050
      TEMPO 2206/2210 2SM RA BR BKN025 OVC035
     FM221000 VRB03KT 6SM -RA BR SCT006 OVC025
      TEMPO 2210/2213 2SM -RA BR OVC006
     FM221600 19008KT P6SM VCSH SCT020 BKN050 BKN100
      AMD NOT SKED 2206/2212=

USA.gov is the U.S. government's official web portal to all federal, state and local government web resources and services.